• Join FlightAware (Why Join?)
  • Login
  • US Flag 
05:52AM EDT


 

Airport Tracker/Info


-or-


 

Live Flight TrackerFlight Track Log ✈ GJS3706 ✈ 04-May-2013 ✈ KBTV - KORD

Flight Track Log - Related Links

Times and Time Zones

All times are in EDT time to prevent confusion due to time zone crossing. See the GJS3706 flight status page for this flight to view local times or setup timezone preferences in your user account.

Time Position Orientation Groundspeed Altitude Reporting Facility
EDT Latitude Longitude Course Direction KTS MPH feet Rate Location/Type
11:45AM 44.5081 -73.3133 271° West 218 251 4,700  Level Boston Center
11:46AM 44.4906 -73.4236 257° West 264 304 7,600 2,880 Climbing Boston Center
11:47AM 44.3660 -73.7045 259° West  Level FlightAware Approximate
11:47AM 44.4708 -73.5281 255° West 282 325 10,500  Level Boston Center
11:48AM 44.3460 -73.8450 259° West  Level FlightAware Approximate
11:48AM 44.4489 -73.6381 254° West 308 354 12,000  Level Boston Center
11:49AM 44.3236 -73.9846 255° West  Level FlightAware Approximate
11:49AM 44.4203 -73.7858 255° West 344 396 14,200  Level Boston Center
11:50AM 44.2974 -74.1229 255° West  Level FlightAware Approximate
11:50AM 44.3933 -73.9217 255° West 362 417 16,400  Level Boston Center
11:51AM 44.3667 -74.0633 255° West 372 428 17,900 1,560 Climbing Boston Center
11:52AM 44.3353 -74.2133 254° West 386 444 19,600 1,200 Climbing Boston Center
11:53AM 44.3122 -74.3406 256° West 393 452 20,400 1,140 Climbing Boston Center
11:54AM 44.2714 -74.5392 254° West 430 495 21,900 1,440 Climbing Boston Center
11:55AM 44.2369 -74.7061 254° West 443 510 23,300 840 Climbing Boston Center
11:56AM 44.2069 -74.8528 254° West 448 516 23,600 1,140 Climbing Boston Center
11:57AM 44.1692 -75.0450 255° West 441 507 25,600 1,260 Climbing Boston Center
11:58AM 44.1339 -75.2200 254° West 460 529 26,500 960 Climbing Boston Center
11:59AM 44.0889 -75.4375 254° West 481 554 27,800 1,200 Climbing Boston Center
12:00PM 44.0531 -75.6122 254° West 481 554 28,900 900 Climbing Boston Center
12:01PM 44.0144 -75.7892 253° West 481 554 29,600 540 Climbing Boston Center
12:02PM 43.9758 -75.9717 254° West 489 563 30,000 300 Climbing Boston Center
12:03PM 43.9469 -76.1575 258° West 489 563 30,300 840 Climbing Boston Center
12:04PM 43.9325 -76.3442 264° West 489 563 31,700 1,620 Climbing Boston Center
12:05PM 43.9158 -76.5217 263° West 479 551 33,600 1,680 Climbing Boston Center
12:07PM 43.8833 -76.7833 260° West 430 495 36,400 1,320 Climbing Toronto Center
12:08PM 43.8500 -76.9500 255° West 430 495 37,300 780 Climbing Toronto Center
12:09PM 43.8333 -77.1167 262° West 420 483 38,000 300 Climbing Toronto Center
12:10PM 43.8167 -77.2833 262° West 420 483 38,000  Level Toronto Center
12:11PM 43.8167 -77.4333 270° West 430 495 38,000  Level Toronto Center
12:12PM 43.8333 -77.5833 279° West 410 472 38,000  Level Toronto Center
12:13PM 43.8667 -77.7333 287° West 400 460 38,000  Level Toronto Center
12:14PM 43.8833 -77.9000 278° West 410 472 38,000  Level Toronto Center
12:15PM 43.9000 -78.0667 278° West 420 483 38,000  Level Toronto Center
12:16PM 43.9333 -78.2167 287° West 430 495 38,000  Level Toronto Center
12:17PM 43.9333 -78.3833 270° West 420 483 38,000  Level Toronto Center
12:18PM 43.9333 -78.5500 270° West 410 472 38,000  Level Toronto Center
12:19PM 43.9167 -78.6833 260° West 410 472 38,000  Level Toronto Center
12:20PM 43.8833 -78.8500 255° West 410 472 38,000  Level Toronto Center
12:21PM 43.8667 -79.0167 262° West 420 483 38,000  Level Toronto Center
12:22PM 43.8333 -79.1500 251° West 420 483 38,000  Level Toronto Center
12:23PM 43.8167 -79.3167 262° West 410 472 38,000  Level Toronto Center
12:24PM 43.8000 -79.4500 260° West 400 460 38,000  Level Toronto Center
12:25PM 43.7667 -79.6167 255° West 400 460 38,000  Level Toronto Center
12:26PM 43.7500 -79.7500 260° West 410 472 38,000  Level Toronto Center
12:27PM 43.7167 -79.9167 255° West 410 472 38,000  Level Toronto Center
12:28PM 43.7000 -80.0667 261° West 410 472 38,000  Level Toronto Center
12:29PM 43.6667 -80.2333 255° West 420 483 38,000  Level Toronto Center
12:30PM 43.6500 -80.3667 260° West 420 483 38,000  Level Toronto Center
12:31PM 43.6333 -80.5333 262° West 410 472 38,000  Level Toronto Center
12:32PM 43.6000 -80.7000 255° West 400 460 38,000  Level Toronto Center
12:33PM 43.5500 -80.8333 243° Southwest 400 460 38,000  Level Toronto Center
12:34PM 43.4833 -80.9500 232° Southwest 400 460 38,000  Level Toronto Center
12:35PM 43.4000 -81.0500 221° Southwest 400 460 38,000  Level Toronto Center
12:36PM 43.3833 -81.2167 262° West 410 472 38,000  Level Toronto Center
12:37PM 43.3667 -81.3500 260° West 410 472 38,000  Level Toronto Center
12:38PM 43.3333 -81.5167 255° West 410 472 38,000  Level Toronto Center
12:39PM 43.3167 -81.6667 261° West 420 483 38,000  Level Toronto Center
12:40PM 43.2833 -81.8333 255° West 420 483 38,000  Level Toronto Center
12:41PM 43.2500 -81.9833 253° West 420 483 38,000  Level Toronto Center
12:42PM 43.2333 -82.1333 261° West 420 483 38,000  Level Toronto Center
12:43PM 43.2000 -82.3167 256° West 420 483 38,000  Level Toronto Center
12:44PM 43.1833 -82.4500 260° West 430 495 38,000  Level Toronto Center
12:45PM 43.1608 -82.6408 261° West 428 493 38,000  Level Cleveland Center
12:46PM 43.1350 -82.8050 258° West 433 498 38,000  Level Cleveland Center
12:47PM 43.1067 -82.9606 256° West 433 498 38,000  Level Cleveland Center
12:48PM 43.0806 -83.1217 258° West 433 498 38,000  Level Cleveland Center
12:49PM 43.0475 -83.2822 254° West 428 493 38,000  Level Cleveland Center
12:50PM 43.0206 -83.4486 258° West 434 499 38,000  Level Cleveland Center
12:51PM 42.9914 -83.6119 256° West 440 506 38,000  Level Cleveland Center
12:52PM 42.9642 -83.7722 257° West 440 506 38,000 -660 Level Cleveland Center
12:53PM 42.9803 -83.9433 277° West 446 513 36,700 -1,380 Descending Cleveland Center
12:54PM 43.0169 -84.1072 287° West 437 503 35,300 -1,500 Descending Cleveland Center
12:55PM 43.0225 -84.2694 273° West 437 503 33,700 -1,500 Descending Cleveland Center
12:56PM 42.9867 -84.4036 250° West 418 481 32,400 -1,380 Descending Cleveland Center
12:57PM 42.9733 -84.4572 251° West 440 506 32,000 -360 Descending Chicago Center
12:58PM 42.9286 -84.6208 250° West 457 526 32,000  Level Chicago Center
12:59PM 42.8839 -84.7900 250° West 473 544 32,000  Level Chicago Center
01:00PM 42.8456 -84.9583 253° West 466 536 32,000  Level Chicago Center
01:01PM 42.8272 -85.1308 262° West 462 532 32,000 -180 Level Chicago Center
01:02PM 42.8081 -85.3036 261° West 460 529 31,700 -1,080 Descending Chicago Center
01:03PM 42.7847 -85.5103 261° West 460 529 29,800 -1,680 Descending Chicago Center
01:04PM 42.7536 -85.6786 256° West 456 525 28,300 -1,500 Descending Chicago Center
01:05PM 42.7250 -85.8408 257° West 444 511 26,800 -1,500 Descending Chicago Center
01:06PM 42.6969 -85.9950 256° West 423 487 25,300 -1,500 Descending Chicago Center
01:07PM 42.6700 -86.1456 256° West 410 472 23,800 -1,620 Descending Chicago Center
01:08PM 42.6431 -86.2894 256° West 397 457 22,100 -1,680 Descending Chicago Center
01:09PM 42.6144 -86.4378 255° West 404 465 20,400 -1,740 Descending Chicago Center
01:10PM 42.5858 -86.5917 256° West 420 483 18,600 -1,860 Descending Chicago Center
01:11PM 42.5547 -86.7622 256° West 396 456 16,600 -1,920 Descending Chicago Center
01:12PM 42.5139 -86.8986 248° West 382 440 14,700 -1,800 Descending Chicago Center
01:13PM 42.4775 -87.0322 250° West 380 437 12,900 -1,800 Descending Chicago Center
01:14PM 42.4406 -87.1625 249° West 373 429 11,100 -1,440 Descending Chicago Center
01:15PM 42.4044 -87.2928 249° West 372 428 10,000 -540 Descending Chicago Center
01:16PM 42.3717 -87.4158 250° West 370 426 10,000  Level Chicago Center
01:17PM 42.3244 -87.5500 245° Southwest 332 382 10,000 -660 Level Chicago Center
01:18PM 42.2614 -87.6181 219° Southwest 297 342 8,700 -1,260 Descending Chicago Center
01:19PM 42.1992 -87.6831 218° Southwest 286 329 7,500 -840 Descending Chicago Center
01:20PM 42.1408 -87.7436 218° Southwest 267 307 7,100 -240 Descending Chicago Center
01:21PM 42.1000 -87.8000 226° Southwest 285 328 7,100  Level Chicago TRACON
01:22PM 42.1000 -87.9167 270° West 285 328 7,100 -60 Level Chicago TRACON
01:23PM 42.1000 -88.0000 270° West 246 283 7,000 -840 Descending Chicago TRACON
01:24PM 42.0833 -88.1000 257° West 252 290 5,600 -1,500 Descending Chicago TRACON
01:24PM 42.0911 -88.1336 287° West 249 287 5,000 -1,080 Descending Chicago Center
01:25PM 42.0825 -88.2181 262° West 249 287 4,000 -540 Descending Chicago Center
01:26PM 42.0314 -88.2236 185° South 203 234 4,000 -420 Level Chicago Center
01:27PM 42.0022 -88.1714 127° Southeast 185 213 3,200 -840 Descending Chicago Center
01:28PM 41.9811 -88.1081 114° Southeast 184 212 2,300 -600 Descending Chicago Center
01:29PM 41.9833 -88.0667 86° East 181 208 2,400 -180 Climbing Chicago TRACON
01:30PM 41.9833 -88.0000 90° East 173 199 2,100 -300 Descending Chicago TRACON